EDT,Max TemperatureF,Mean TemperatureF,Min TemperatureF,Max Dew PointF,MeanDew PointF,Min DewpointF,Max Humidity, Mean Humidity, Min Humidity, Max Sea Level PressureIn, Mean Sea Level PressureIn, Min Sea Level PressureIn, Max VisibilityMiles, Mean VisibilityMiles, Min VisibilityMiles, Max Wind SpeedMPH, Mean Wind SpeedMPH, Max Gust SpeedMPH,PrecipitationIn, CloudCover, Events, WindDirDegrees
2013-6-1,81,74,67,65,63,60,84,69,54,29.82,29.74,29.66,10,10,10,28,12,38,T,4,Rain,211
2013-6-2,69,57,45,61,52,37,90,74,57,30.04,29.78,29.62,10,10,3,24,13,31,0.01,7,Rain,275
2013-6-3,69,55,40,42,39,37,92,63,34,30.10,30.06,30.01,10,10,10,17,7,23,0.00,0,,294
2013-6-4,69,58,46,47,39,32,76,51,26,30.22,30.19,30.13,10,10,10,12,6,15,0.00,0,,47
2013-6-5,70,62,54,52,43,35,80,55,30,30.22,30.15,30.07,10,10,10,20,9,23,T,6,Rain,63
2013-6-6,63,58,53,52,48,45,83,69,55,30.06,29.98,29.94,10,10,10,23,12,26,T,5,,45
2013-6-7,65,58,51,51,49,46,89,75,60,29.97,29.94,29.91,10,10,10,16,9,22,0.00,5,,34
2013-6-8,72,62,51,54,51,48,93,69,44,30.09,30.00,29.94,10,10,10,15,3,18,T,4,,49
2013-6-9,79,67,54,56,53,51,86,66,45,30.13,30.07,29.97,10,10,9,20,9,26,0.00,3,,115
2013-6-10,69,65,60,64,60,50,93,73,53,29.96,29.84,29.78,10,4,0,16,7,22,0.13,8,Fog-Rain,63
2013-6-11,81,72,62,64,62,60,100,77,54,29.89,29.84,29.80,10,5,0,18,7,22,T,5,Fog,290
2013-6-12,79,70,61,66,63,60,100,79,58,29.92,29.84,29.70,10,5,0,23,6,29,0.09,5,Fog-Rain,59
2013-6-13,77,70,62,63,58,54,90,70,50,29.96,29.79,29.68,10,9,5,18,10,25,0.14,4,Rain,10
2013-6-14,76,66,55,55,51,49,86,64,41,30.12,30.05,29.97,10,10,10,14,6,20,0.00,1,,20
2013-6-15,77,65,52,60,55,50,93,70,47,30.08,30.00,29.90,10,10,8,14,7,18,T,2,,228
2013-6-16,83,74,64,65,61,49,93,64,35,29.87,29.81,29.74,10,8,2,23,10,28,0.43,6,Rain,255
2013-6-17,78,68,58,63,58,54,90,72,54,29.98,29.92,29.85,10,9,0,21,8,25,0.56,4,Rain-Thunderstorm,9
2013-6-18,68,61,53,53,47,40,86,61,35,30.12,30.06,29.96,10,10,10,24,13,29,0.00,2,,51
2013-6-19,74,61,47,52,45,41,93,63,33,30.21,30.16,30.12,10,10,10,12,5,16,0.00,0,,79
2013-6-20,82,68,53,53,50,46,83,57,30,30.22,30.18,30.15,10,10,10,10,4,14,0.00,0,,196
2013-6-21,86,74,62,63,58,54,73,58,42,30.20,30.12,30.02,10,10,10,22,9,30,0.00,1,,184
2013-6-22,88,78,68,69,65,57,84,66,48,30.06,30.02,29.96,10,10,9,15,8,17,T,2,Rain,242
2013-6-23,90,78,65,68,65,62,93,68,43,30.04,29.99,29.93,10,9,4,24,10,29,0.00,0,,226
2013-6-24,87,80,72,70,67,63,79,65,50,30.03,29.98,29.90,10,10,8,21,11,25,0.00,2,,229
2013-6-25,80,75,69,68,66,64,84,73,62,29.92,29.88,29.82,10,10,5,21,9,26,0.06,3,Rain,234
2013-6-26,87,77,66,70,66,63,93,71,48,29.86,29.81,29.75,10,10,4,10,3,15,0.00,2,,198
2013-6-27,84,76,68,72,67,64,93,79,65,29.75,29.71,29.65,10,8,1,29,4,36,0.74,5,Rain,161
2013-6-28,77,71,65,66,64,62,93,79,64,29.66,29.60,29.55,10,9,2,15,7,17,0.19,6,Rain,345
2013-6-29,73,68,62,63,60,57,93,77,61,29.78,29.65,29.57,10,8,1,14,8,17,0.19,8,Rain,20
2013-6-30,76,68,59,62,54,41,90,63,35,30.01,29.89,29.78,10,10,10,17,9,22,0.00,3,,21